createdAt,value
2018-06-05T00:00:57.627Z,956.18
2018-06-05T00:01:57.569Z,956.19
2018-06-05T00:02:57.509Z,956.17
2018-06-05T00:03:57.455Z,956.18
2018-06-05T00:04:57.393Z,956.21
2018-06-05T00:05:57.334Z,956.19
2018-06-05T00:06:57.275Z,956.21
2018-06-05T00:07:57.215Z,956.22
2018-06-05T00:08:57.160Z,956.25
2018-06-05T00:09:57.097Z,956.22
2018-06-05T00:10:57.042Z,956.22
2018-06-05T00:11:56.981Z,956.24
2018-06-05T00:12:56.923Z,956.22
2018-06-05T00:13:56.866Z,956.21
2018-06-05T00:14:56.804Z,956.21
2018-06-05T00:15:56.744Z,956.24
2018-06-05T00:16:56.687Z,956.25
2018-06-05T00:17:56.626Z,956.23
2018-06-05T00:18:56.567Z,956.26
2018-06-05T00:19:56.508Z,956.30
2018-06-05T00:20:56.450Z,956.27
2018-06-05T00:21:56.389Z,956.30
2018-06-05T00:22:56.332Z,956.27
2018-06-05T00:23:56.272Z,956.27
2018-06-05T00:24:56.214Z,956.27
2018-06-05T00:25:56.160Z,956.28
2018-06-05T00:26:56.140Z,956.32
2018-06-05T00:27:56.037Z,956.33
2018-06-05T00:28:55.977Z,956.32
2018-06-05T00:29:55.917Z,956.32
2018-06-05T00:30:55.860Z,956.34
2018-06-05T00:31:55.799Z,956.36
2018-06-05T00:32:55.744Z,956.35
2018-06-05T00:33:55.681Z,956.37
2018-06-05T00:34:55.622Z,956.36
2018-06-05T00:35:55.564Z,956.35
2018-06-05T00:36:55.504Z,956.38
2018-06-05T00:37:55.446Z,956.33
2018-06-05T00:38:55.397Z,956.36
2018-06-05T00:39:55.327Z,956.36
2018-06-05T00:40:55.266Z,956.35
2018-06-05T00:41:55.208Z,956.36
2018-06-05T00:42:55.160Z,956.40
2018-06-05T00:43:55.090Z,956.35
2018-06-05T00:44:55.033Z,956.35
2018-06-05T00:45:54.971Z,956.34
2018-06-05T00:46:54.913Z,956.32
2018-06-05T00:47:54.853Z,956.32
2018-06-05T00:48:54.794Z,956.30
2018-06-05T00:49:54.733Z,956.29
2018-06-05T00:50:54.674Z,956.35
2018-06-05T00:51:54.615Z,956.36
2018-06-05T00:52:54.557Z,956.34
2018-06-05T00:53:54.496Z,956.34
2018-06-05T00:54:54.437Z,956.35
2018-06-05T00:55:54.378Z,956.35
2018-06-05T00:56:54.318Z,956.32
2018-06-05T00:57:54.263Z,956.35
2018-06-05T00:58:54.200Z,956.36
2018-06-05T00:59:54.143Z,956.36
2018-06-05T01:00:54.082Z,956.30
2018-06-05T01:01:54.022Z,956.32
2018-06-05T01:02:53.962Z,956.32
2018-06-05T01:03:53.903Z,956.31
2018-06-05T01:04:53.844Z,956.33
2018-06-05T01:05:53.785Z,956.34
2018-06-05T01:06:53.725Z,956.28
2018-06-05T01:07:53.665Z,956.28
2018-06-05T01:08:53.607Z,956.30
2018-06-05T01:09:53.551Z,956.33
2018-06-05T01:10:53.490Z,956.29
2018-06-05T01:11:53.429Z,956.32
2018-06-05T01:12:53.369Z,956.28
2018-06-05T01:13:53.309Z,956.30
2018-06-05T01:14:53.255Z,956.30
2018-06-05T01:15:53.190Z,956.32
2018-06-05T01:16:53.131Z,956.28
2018-06-05T01:17:53.072Z,956.26
2018-06-05T01:18:53.014Z,956.28
2018-06-05T01:19:52.950Z,956.28
2018-06-05T01:20:52.892Z,956.29
2018-06-05T01:21:52.832Z,956.27
2018-06-05T01:22:52.775Z,956.26
2018-06-05T01:23:52.714Z,956.25
2018-06-05T01:24:52.654Z,956.28
2018-06-05T01:25:52.596Z,956.26
2018-06-05T01:26:52.535Z,956.25
2018-06-05T01:27:52.476Z,956.23
2018-06-05T01:28:52.417Z,956.24
2018-06-05T01:29:52.356Z,956.22
2018-06-05T01:30:52.298Z,956.23
2018-06-05T01:31:52.238Z,956.24
2018-06-05T01:32:52.186Z,956.26
2018-06-05T01:33:52.121Z,956.25
2018-06-05T01:34:52.062Z,956.23
2018-06-05T01:35:52.041Z,956.22
2018-06-05T01:36:51.942Z,956.23
2018-06-05T01:37:51.880Z,956.23
2018-06-05T01:38:51.823Z,956.23
2018-06-05T01:39:51.760Z,956.24
2018-06-05T01:40:51.702Z,956.22
2018-06-05T01:41:51.643Z,956.21
2018-06-05T01:42:51.582Z,956.15
2018-06-05T01:43:51.523Z,956.18
2018-06-05T01:44:51.463Z,956.15
2018-06-05T01:45:51.403Z,956.15
2018-06-05T01:46:51.346Z,956.14
2018-06-05T01:47:51.286Z,956.17
2018-06-05T01:48:51.225Z,956.14
2018-06-05T01:49:51.165Z,956.14
2018-06-05T01:50:51.106Z,956.12
2018-06-05T01:51:51.047Z,956.13
2018-06-05T01:52:50.986Z,956.14
2018-06-05T01:53:50.925Z,956.14
2018-06-05T01:54:50.867Z,956.15
2018-06-05T01:55:50.806Z,956.18
2018-06-05T01:56:50.748Z,956.18
2018-06-05T01:57:50.685Z,956.19
2018-06-05T01:58:50.627Z,956.22
2018-06-05T01:59:50.567Z,956.20
2018-06-05T02:00:50.506Z,956.19
2018-06-05T02:01:50.449Z,956.21
2018-06-05T02:02:50.387Z,956.21
2018-06-05T02:03:50.330Z,956.23
2018-06-05T02:04:50.275Z,956.20
2018-06-05T02:05:50.208Z,956.17
2018-06-05T02:06:50.147Z,956.20
2018-06-05T02:07:50.090Z,956.18
2018-06-05T02:08:50.030Z,956.20
2018-06-05T02:09:49.967Z,956.21
2018-06-05T02:10:49.909Z,956.20
2018-06-05T02:11:49.849Z,956.21
2018-06-05T02:12:49.789Z,956.22
2018-06-05T02:13:49.728Z,956.24
2018-06-05T02:14:49.667Z,956.23
2018-06-05T02:15:49.609Z,956.24
2018-06-05T02:16:49.549Z,956.21
2018-06-05T02:17:49.488Z,956.22
2018-06-05T02:18:49.428Z,956.25
2018-06-05T02:19:49.370Z,956.25
2018-06-05T02:20:49.308Z,956.22
2018-06-05T02:21:49.249Z,956.23
2018-06-05T02:22:49.192Z,956.29
2018-06-05T02:23:49.127Z,956.23
2018-06-05T02:24:49.072Z,956.27
2018-06-05T02:25:49.010Z,956.22
2018-06-05T02:26:48.949Z,956.24
2018-06-05T02:27:48.891Z,956.25
2018-06-05T02:28:48.829Z,956.21
2018-06-05T02:29:48.768Z,956.21
2018-06-05T02:30:48.709Z,956.24
2018-06-05T02:31:48.650Z,956.24
2018-06-05T02:32:48.591Z,956.23
2018-06-05T02:33:48.529Z,956.25
2018-06-05T02:34:48.468Z,956.25
2018-06-05T02:35:48.408Z,956.29
2018-06-05T02:36:48.348Z,956.27
2018-06-05T02:37:48.286Z,956.27
2018-06-05T02:38:48.229Z,956.29
2018-06-05T02:39:48.167Z,956.29
2018-06-05T02:40:48.107Z,956.32
2018-06-05T02:41:48.048Z,956.30
2018-06-05T02:42:47.987Z,956.32
2018-06-05T02:43:47.928Z,956.31
2018-06-05T02:44:47.868Z,956.35
2018-06-05T02:45:47.806Z,956.37
2018-06-05T02:46:47.747Z,956.36
2018-06-05T02:47:47.690Z,956.37
2018-06-05T02:48:47.628Z,956.41
2018-06-05T02:49:47.567Z,956.42
2018-06-05T02:50:47.505Z,956.48
2018-06-05T02:51:47.447Z,956.45
2018-06-05T02:52:47.385Z,956.51
2018-06-05T02:53:47.330Z,956.54
2018-06-05T02:54:47.281Z,956.54
2018-06-05T02:55:47.209Z,956.54
2018-06-05T02:56:47.150Z,956.53
2018-06-05T02:57:47.087Z,956.56
2018-06-05T02:58:47.024Z,956.57
2018-06-05T02:59:46.965Z,956.59
2018-06-05T03:00:46.906Z,956.59
2018-06-05T03:01:46.844Z,956.63
2018-06-05T03:02:46.784Z,956.66
2018-06-05T03:03:46.722Z,956.64
2018-06-05T03:04:46.662Z,956.66
2018-06-05T03:05:46.602Z,956.69
2018-06-05T03:06:46.545Z,956.67
2018-06-05T03:07:46.481Z,956.68
2018-06-05T03:08:46.422Z,956.66
2018-06-05T03:09:46.361Z,956.69
2018-06-05T03:10:46.303Z,956.71
2018-06-05T03:11:46.241Z,956.67
2018-06-05T03:12:46.182Z,956.68
2018-06-05T03:13:46.121Z,956.73
2018-06-05T03:14:46.062Z,956.74
2018-06-05T03:15:46.000Z,956.69
2018-06-05T03:16:45.977Z,956.71
2018-06-05T03:17:45.881Z,956.71
2018-06-05T03:18:45.819Z,956.69
2018-06-05T03:19:45.762Z,956.71
2018-06-05T03:20:45.698Z,956.74
2018-06-05T03:21:45.638Z,956.73
2018-06-05T03:22:45.580Z,956.71
2018-06-05T03:23:45.568Z,956.73
2018-06-05T03:24:45.458Z,956.75
2018-06-05T03:25:45.398Z,956.75
2018-06-05T03:26:45.338Z,956.75
2018-06-05T03:27:45.280Z,956.77
2018-06-05T03:28:45.218Z,956.79
2018-06-05T03:29:45.164Z,956.79
2018-06-05T03:30:45.099Z,956.81
2018-06-05T03:31:45.037Z,956.83
2018-06-05T03:32:44.979Z,956.80
2018-06-05T03:33:44.914Z,956.84
2018-06-05T03:34:44.855Z,956.86
2018-06-05T03:35:44.795Z,956.85
2018-06-05T03:36:44.736Z,956.86
2018-06-05T03:37:44.674Z,956.82
2018-06-05T03:38:44.613Z,956.86
2018-06-05T03:39:44.558Z,956.87
2018-06-05T03:40:44.534Z,956.89
2018-06-05T03:41:44.436Z,956.86
2018-06-05T03:42:44.373Z,956.92
2018-06-05T03:43:44.313Z,956.93
2018-06-05T03:44:44.252Z,956.91
2018-06-05T03:45:44.193Z,956.88
2018-06-05T03:46:44.131Z,956.89
2018-06-05T03:47:44.071Z,956.90
2018-06-05T03:48:44.012Z,956.91
2018-06-05T03:49:43.950Z,956.89
2018-06-05T03:50:43.889Z,956.89
2018-06-05T03:51:43.834Z,956.88
2018-06-05T03:52:43.770Z,956.85
2018-06-05T03:53:43.713Z,956.88
2018-06-05T03:54:43.648Z,956.81
2018-06-05T03:55:43.589Z,956.82
2018-06-05T03:56:43.530Z,956.85
2018-06-05T03:57:43.469Z,956.83
2018-06-05T03:58:43.409Z,956.81
2018-06-05T03:59:43.347Z,956.85
2018-06-05T04:00:43.298Z,956.86
2018-06-05T04:01:43.227Z,956.88
2018-06-05T04:02:43.166Z,956.87
2018-06-05T04:03:43.107Z,956.90
2018-06-05T04:04:43.047Z,956.94
2018-06-05T04:05:42.985Z,956.97
2018-06-05T04:06:42.926Z,956.93
2018-06-05T04:07:42.865Z,956.91
2018-06-05T04:08:42.810Z,956.94
2018-06-05T04:09:42.744Z,956.91
2018-06-05T04:10:42.684Z,956.93
2018-06-05T04:11:42.624Z,956.91
2018-06-05T04:12:42.564Z,956.92
2018-06-05T04:13:42.503Z,956.92
2018-06-05T04:14:42.443Z,956.95
2018-06-05T04:15:42.382Z,956.94
2018-06-05T04:16:42.322Z,956.98
2018-06-05T04:17:42.261Z,956.99
2018-06-05T04:18:42.205Z,957.05
2018-06-05T04:19:42.142Z,957.08
2018-06-05T04:20:42.083Z,957.05
2018-06-05T04:21:42.021Z,957.10
2018-06-05T04:22:41.960Z,957.12
2018-06-05T04:23:41.900Z,957.12
2018-06-05T04:24:41.840Z,957.10
2018-06-05T04:25:41.779Z,957.16
2018-06-05T04:26:41.718Z,957.14
2018-06-05T04:27:41.659Z,957.14
2018-06-05T04:28:41.601Z,957.16
2018-06-05T04:29:41.537Z,957.11
2018-06-05T04:30:41.479Z,957.16
2018-06-05T04:31:41.419Z,957.10
2018-06-05T04:32:41.359Z,957.13
2018-06-05T04:33:41.298Z,957.12
2018-06-05T04:34:41.246Z,957.14
2018-06-05T04:35:41.178Z,957.15
2018-06-05T04:36:41.118Z,957.17
2018-06-05T04:37:41.056Z,957.15
2018-06-05T04:38:40.998Z,957.18
2018-06-05T04:39:40.938Z,957.18
2018-06-05T04:40:40.878Z,957.17
2018-06-05T04:41:40.817Z,957.18
2018-06-05T04:42:40.756Z,957.22
2018-06-05T04:43:40.701Z,957.22
2018-06-05T04:44:40.637Z,957.17
2018-06-05T04:45:40.575Z,957.25
2018-06-05T04:46:40.516Z,957.18
2018-06-05T04:47:40.496Z,957.19
2018-06-05T04:48:40.401Z,957.19
2018-06-05T04:49:40.338Z,957.23
2018-06-05T04:50:40.280Z,957.23
2018-06-05T04:51:40.216Z,957.24
2018-06-05T04:52:40.157Z,957.28
2018-06-05T04:53:40.099Z,957.25
2018-06-05T04:54:40.037Z,957.27
2018-06-05T04:55:39.977Z,957.30
2018-06-05T04:56:39.920Z,957.27
2018-06-05T04:57:39.856Z,957.25
2018-06-05T04:58:39.796Z,957.24
2018-06-05T04:59:39.736Z,957.24
2018-06-05T05:00:39.677Z,957.25
2018-06-05T05:01:39.617Z,957.26
2018-06-05T05:02:39.556Z,957.24
2018-06-05T05:03:39.497Z,957.24
2018-06-05T05:04:39.439Z,957.25
2018-06-05T05:05:39.377Z,957.27
2018-06-05T05:06:39.318Z,957.25
2018-06-05T05:07:39.259Z,957.23
2018-06-05T05:08:39.200Z,957.23
2018-06-05T05:09:39.136Z,957.25
2018-06-05T05:10:39.080Z,957.26
2018-06-05T05:11:39.021Z,957.28
2018-06-05T05:12:39.014Z,957.25
2018-06-05T05:13:38.902Z,957.30
2018-06-05T05:14:38.840Z,957.25
2018-06-05T05:15:38.780Z,957.27
2018-06-05T05:16:38.721Z,957.31
2018-06-05T05:17:38.664Z,957.27
2018-06-05T05:18:38.604Z,957.28
2018-06-05T05:19:38.543Z,957.30
2018-06-05T05:20:38.485Z,957.29
2018-06-05T05:21:38.425Z,957.32
2018-06-05T05:22:38.364Z,957.32
2018-06-05T05:23:38.305Z,957.34
2018-06-05T05:24:38.245Z,957.33
2018-06-05T05:25:38.185Z,957.33
2018-06-05T05:26:38.127Z,957.35
2018-06-05T05:27:38.066Z,957.35
2018-06-05T05:28:38.010Z,957.36
2018-06-05T05:29:37.947Z,957.41
2018-06-05T05:30:37.889Z,957.38
2018-06-05T05:31:37.978Z,957.47
2018-06-05T05:32:37.771Z,957.45
2018-06-05T05:33:37.711Z,957.46
2018-06-05T05:34:37.651Z,957.46
2018-06-05T05:35:37.592Z,957.46
2018-06-05T05:36:37.533Z,957.42
2018-06-05T05:37:37.475Z,957.43
2018-06-05T05:38:37.414Z,957.41
2018-06-05T05:39:37.356Z,957.43
2018-06-05T05:40:37.302Z,957.47
2018-06-05T05:41:37.236Z,957.47
2018-06-05T05:42:37.179Z,957.43
2018-06-05T05:43:37.120Z,957.50
2018-06-05T05:44:37.061Z,957.46
2018-06-05T05:45:37.001Z,957.45
2018-06-05T05:46:36.943Z,957.45
2018-06-05T05:47:36.883Z,957.49
2018-06-05T05:48:36.823Z,957.49
2018-06-05T05:49:36.763Z,957.51
2018-06-05T05:50:36.704Z,957.46
2018-06-05T05:51:36.886Z,957.50
2018-06-05T05:52:36.589Z,957.51
2018-06-05T05:53:36.527Z,957.52
2018-06-05T05:54:36.470Z,957.51
2018-06-05T05:55:36.413Z,957.56
2018-06-05T05:56:36.353Z,957.51
2018-06-05T05:57:36.290Z,957.58
2018-06-05T05:58:36.232Z,957.55
2018-06-05T05:59:36.175Z,957.58
2018-06-05T06:00:36.116Z,957.56
2018-06-05T06:01:36.056Z,957.57
2018-06-05T06:02:36.014Z,957.54
2018-06-05T06:03:35.941Z,957.55
2018-06-05T06:04:35.885Z,957.54
2018-06-05T06:05:35.822Z,957.54
2018-06-05T06:06:35.761Z,957.55
2018-06-05T06:07:35.706Z,957.52
2018-06-05T06:08:35.647Z,957.53
2018-06-05T06:09:35.592Z,957.56
2018-06-05T06:10:35.528Z,957.56
2018-06-05T06:11:35.471Z,957.55
2018-06-05T06:12:35.414Z,957.56
2018-06-05T06:13:35.358Z,957.54
2018-06-05T06:14:35.294Z,957.55
2018-06-05T06:15:35.239Z,957.55
2018-06-05T06:16:35.180Z,957.57
2018-06-05T06:17:35.121Z,957.59
2018-06-05T06:18:35.061Z,957.55
2018-06-05T06:19:35.012Z,957.61
2018-06-05T06:20:34.949Z,957.61
2018-06-05T06:21:34.889Z,957.62
2018-06-05T06:22:34.832Z,957.64
2018-06-05T06:23:34.774Z,957.62
2018-06-05T06:24:34.716Z,957.59
2018-06-05T06:25:34.657Z,957.61
2018-06-05T06:26:34.598Z,957.66
2018-06-05T06:27:34.541Z,957.63
2018-06-05T06:28:34.483Z,957.64
2018-06-05T06:29:34.423Z,957.64
2018-06-05T06:30:34.366Z,957.64
2018-06-05T06:31:34.310Z,957.65
2018-06-05T06:32:34.252Z,957.66
2018-06-05T06:33:34.191Z,957.67
2018-06-05T06:34:34.134Z,957.65
2018-06-05T06:35:34.085Z,957.68
2018-06-05T06:36:34.018Z,957.69
2018-06-05T06:37:33.961Z,957.67
2018-06-05T06:38:33.927Z,957.67
2018-06-05T06:39:33.848Z,957.65
2018-06-05T06:40:33.791Z,957.67
2018-06-05T06:41:33.730Z,957.68
2018-06-05T06:42:33.673Z,957.67
2018-06-05T06:43:33.617Z,957.73
2018-06-05T06:44:33.557Z,957.70
2018-06-05T06:45:33.500Z,957.69
2018-06-05T06:46:33.441Z,957.74
2018-06-05T06:47:33.383Z,957.68
2018-06-05T06:48:33.343Z,957.69
2018-06-05T06:49:33.268Z,957.69
2018-06-05T06:50:33.314Z,957.69
2018-06-05T06:51:33.155Z,957.69
2018-06-05T06:52:33.101Z,957.72
2018-06-05T06:53:33.037Z,957.70
2018-06-05T06:54:33.045Z,957.69
2018-06-05T06:55:32.924Z,957.64
2018-06-05T06:56:32.873Z,957.64
2018-06-05T06:57:32.808Z,957.65
2018-06-05T06:58:32.751Z,957.69
2018-06-05T06:59:32.706Z,957.66
2018-06-05T07:00:32.637Z,957.67
2018-06-05T07:01:32.579Z,957.69
2018-06-05T07:02:32.523Z,957.63
2018-06-05T07:03:32.491Z,957.65
2018-06-05T07:04:32.408Z,957.66
2018-06-05T07:05:32.350Z,957.67
2018-06-05T07:06:32.293Z,957.68
2018-06-05T07:07:32.242Z,957.67
2018-06-05T07:08:32.179Z,957.68
2018-06-05T07:09:32.121Z,957.68
2018-06-05T07:10:32.063Z,957.69
2018-06-05T07:11:32.007Z,957.65
2018-06-05T07:12:31.954Z,957.68
2018-06-05T07:13:31.891Z,957.65
2018-06-05T07:14:31.832Z,957.65
2018-06-05T07:15:31.776Z,957.63
2018-06-05T07:16:31.719Z,957.67
2018-06-05T07:17:31.664Z,957.65
2018-06-05T07:18:31.604Z,957.69
2018-06-05T07:19:31.546Z,957.69
2018-06-05T07:20:31.490Z,957.66
2018-06-05T07:21:31.432Z,957.68
2018-06-05T07:22:31.374Z,957.69
2018-06-05T07:23:31.323Z,957.70
2018-06-05T07:24:31.265Z,957.74
2018-06-05T07:25:31.204Z,957.70
2018-06-05T07:26:31.148Z,957.71
2018-06-05T07:27:31.091Z,957.72
2018-06-05T07:28:31.033Z,957.70
2018-06-05T07:29:30.974Z,957.68
2018-06-05T07:30:30.922Z,957.64
2018-06-05T07:31:30.885Z,957.65
2018-06-05T07:32:30.805Z,957.66
2018-06-05T07:33:30.782Z,957.66
2018-06-05T07:34:30.695Z,957.66
2018-06-05T07:35:30.633Z,957.61
2018-06-05T07:36:30.579Z,957.63
2018-06-05T07:37:30.520Z,957.56
2018-06-05T07:38:30.464Z,957.62
2018-06-05T07:39:30.405Z,957.62
2018-06-05T07:40:30.350Z,957.62
2018-06-05T07:41:30.291Z,957.60
2018-06-05T07:42:30.235Z,957.61
2018-06-05T07:43:30.177Z,957.61
2018-06-05T07:44:30.124Z,957.59
2018-06-05T07:45:30.068Z,957.62
2018-06-05T07:46:30.008Z,957.61
2018-06-05T07:47:29.953Z,957.58
2018-06-05T07:48:29.895Z,957.58
2018-06-05T07:49:29.836Z,957.61
2018-06-05T07:50:29.781Z,957.57
2018-06-05T07:51:29.724Z,957.59
2018-06-05T07:52:29.667Z,957.60
2018-06-05T07:53:29.675Z,957.61
2018-06-05T07:54:29.554Z,957.55
2018-06-05T07:55:29.496Z,957.56
2018-06-05T07:56:29.442Z,957.52
2018-06-05T07:57:29.388Z,957.56
2018-06-05T07:58:29.326Z,957.56
2018-06-05T07:59:29.271Z,957.52
2018-06-05T08:00:29.215Z,957.55
2018-06-05T08:01:29.157Z,957.56
2018-06-05T08:02:29.104Z,957.54
2018-06-05T08:03:29.044Z,957.53
2018-06-05T08:04:28.990Z,957.57
2018-06-05T08:05:28.932Z,957.59
2018-06-05T08:06:28.876Z,957.59
2018-06-05T08:07:28.819Z,957.62
2018-06-05T08:08:28.763Z,957.61
2018-06-05T08:09:28.705Z,957.61
2018-06-05T08:10:28.650Z,957.59
2018-06-05T08:11:28.596Z,957.56
2018-06-05T08:12:28.538Z,957.54
2018-06-05T08:13:28.480Z,957.59
2018-06-05T08:14:28.430Z,957.52
2018-06-05T08:15:28.369Z,957.57
2018-06-05T08:16:28.312Z,957.57
2018-06-05T08:17:28.257Z,957.56
2018-06-05T08:18:28.242Z,957.56
2018-06-05T08:19:28.143Z,957.56
2018-06-05T08:20:28.087Z,957.58
2018-06-05T08:21:28.031Z,957.55
2018-06-05T08:22:27.976Z,957.53
2018-06-05T08:23:27.919Z,957.54
2018-06-05T08:24:27.871Z,957.58
2018-06-05T08:25:27.806Z,957.56
2018-06-05T08:26:27.753Z,957.63
2018-06-05T08:27:27.694Z,957.59
2018-06-05T08:28:27.640Z,957.61
2018-06-05T08:29:27.584Z,957.60
2018-06-05T08:30:27.528Z,957.58
2018-06-05T08:31:27.472Z,957.60
2018-06-05T08:32:27.418Z,957.58
2018-06-05T08:33:27.359Z,957.60
2018-06-05T08:34:27.304Z,957.61
2018-06-05T08:35:27.248Z,957.59
2018-06-05T08:36:27.191Z,957.58
2018-06-05T08:37:27.133Z,957.61
2018-06-05T08:38:27.079Z,957.61
2018-06-05T08:39:27.022Z,957.61
2018-06-05T08:40:26.967Z,957.59
2018-06-05T08:41:26.912Z,957.58
2018-06-05T08:42:26.855Z,957.57
2018-06-05T08:43:26.803Z,957.58
2018-06-05T08:44:26.747Z,957.57
2018-06-05T08:45:26.688Z,957.62
2018-06-05T08:46:26.632Z,957.56
2018-06-05T08:47:26.578Z,957.55
2018-06-05T08:48:26.523Z,957.55
2018-06-05T08:49:26.466Z,957.57
2018-06-05T08:50:26.410Z,957.55
2018-06-05T08:51:26.354Z,957.56
2018-06-05T08:52:26.299Z,957.58
2018-06-05T08:53:26.242Z,957.55
2018-06-05T08:54:26.189Z,957.51
2018-06-05T08:55:26.136Z,957.55
2018-06-05T08:56:26.078Z,957.55
2018-06-05T08:57:26.027Z,957.56
2018-06-05T08:58:25.975Z,957.50
2018-06-05T08:59:25.910Z,957.54
2018-06-05T09:00:25.856Z,957.57
2018-06-05T09:01:25.800Z,957.54
2018-06-05T09:02:25.745Z,957.57
2018-06-05T09:03:25.688Z,957.60
2018-06-05T09:04:25.634Z,957.59
2018-06-05T09:05:25.613Z,957.59
2018-06-05T09:06:25.522Z,957.59
2018-06-05T09:07:25.472Z,957.60
2018-06-05T09:08:25.413Z,957.59
2018-06-05T09:09:25.364Z,957.64
2018-06-05T09:10:25.302Z,957.63
2018-06-05T09:11:25.246Z,957.62
2018-06-05T09:12:25.191Z,957.63
2018-06-05T09:13:25.137Z,957.61
2018-06-05T09:14:25.081Z,957.60
2018-06-05T09:15:25.026Z,957.61
2018-06-05T09:16:24.976Z,957.64
2018-06-05T09:17:24.917Z,957.62
2018-06-05T09:18:24.863Z,957.73
2018-06-05T09:19:24.811Z,957.73
2018-06-05T09:20:24.787Z,957.80
2018-06-05T09:21:24.701Z,957.85
2018-06-05T09:22:24.647Z,957.90
2018-06-05T09:23:24.596Z,957.90
2018-06-05T09:24:24.543Z,957.86
2018-06-05T09:25:24.489Z,957.85
2018-06-05T09:26:24.439Z,957.87
2018-06-05T09:27:24.383Z,957.89
2018-06-05T09:28:24.333Z,957.86
2018-06-05T09:29:24.282Z,957.91
2018-06-05T09:30:24.229Z,957.96
2018-06-05T09:31:24.177Z,957.94
2018-06-05T09:32:24.128Z,957.96
2018-06-05T09:33:24.074Z,957.93
2018-06-05T09:34:24.065Z,957.97
2018-06-05T09:35:23.976Z,957.94
2018-06-05T09:36:23.926Z,957.93
2018-06-05T09:37:23.874Z,957.96
2018-06-05T09:38:23.826Z,957.87
2018-06-05T09:39:23.777Z,957.86
2018-06-05T09:40:23.729Z,957.88
2018-06-05T09:41:23.680Z,957.92
2018-06-05T09:42:23.629Z,957.92
2018-06-05T09:43:23.583Z,957.85
2018-06-05T09:44:23.535Z,957.83
2018-06-05T09:45:23.484Z,957.76
2018-06-05T09:46:23.437Z,957.76
2018-06-05T09:47:23.390Z,957.83
2018-06-05T09:48:23.341Z,957.85
2018-06-05T09:49:23.294Z,957.88
2018-06-05T09:50:23.246Z,957.85
2018-06-05T09:51:23.201Z,957.88
2018-06-05T09:52:23.163Z,957.86
2018-06-05T09:53:23.107Z,957.80
2018-06-05T09:54:23.055Z,957.79
2018-06-05T09:55:23.010Z,957.84
2018-06-05T09:56:22.962Z,957.73
2018-06-05T09:57:22.914Z,957.71
2018-06-05T09:58:22.943Z,957.74
2018-06-05T09:59:22.821Z,957.72
2018-06-05T10:00:22.774Z,957.76
2018-06-05T10:01:22.724Z,957.70
2018-06-05T10:02:22.679Z,957.69
2018-06-05T10:03:22.641Z,957.69
2018-06-05T10:04:22.583Z,957.71
2018-06-05T10:05:22.533Z,957.68
2018-06-05T10:06:22.491Z,957.70
2018-06-05T10:07:22.440Z,957.71
2018-06-05T10:08:22.390Z,957.71
2018-06-05T10:09:22.340Z,957.68
2018-06-05T10:10:22.290Z,957.66
2018-06-05T10:11:22.243Z,957.62
2018-06-05T10:12:22.196Z,957.63
2018-06-05T10:13:22.144Z,957.65
2018-06-05T10:14:22.096Z,957.63
2018-06-05T10:15:22.049Z,957.64
2018-06-05T10:16:22.000Z,957.63
2018-06-05T10:17:21.945Z,957.65
2018-06-05T10:18:21.897Z,957.57
2018-06-05T10:19:21.855Z,957.68
2018-06-05T10:20:21.814Z,957.68
2018-06-05T10:21:21.747Z,957.63
2018-06-05T10:22:21.698Z,957.63
2018-06-05T10:23:21.647Z,957.61
2018-06-05T10:24:21.596Z,957.57
2018-06-05T10:25:21.543Z,957.56
2018-06-05T10:26:21.492Z,957.59
2018-06-05T10:27:21.442Z,957.58
2018-06-05T10:28:21.390Z,957.59
2018-06-05T10:29:21.332Z,957.56
2018-06-05T10:30:21.285Z,957.53
2018-06-05T10:31:21.245Z,957.56
2018-06-05T10:32:21.182Z,957.55
2018-06-05T10:33:21.131Z,957.51
2018-06-05T10:34:21.079Z,957.48
2018-06-05T10:35:21.028Z,957.48
2018-06-05T10:36:20.976Z,957.44
2018-06-05T10:37:20.924Z,957.44
2018-06-05T10:38:20.871Z,957.42
2018-06-05T10:39:20.819Z,957.49
2018-06-05T10:40:20.765Z,957.43
2018-06-05T10:41:20.716Z,957.49
2018-06-05T10:42:20.662Z,957.50
2018-06-05T10:43:20.607Z,957.48
2018-06-05T10:44:20.558Z,957.46
2018-06-05T10:45:20.504Z,957.50
2018-06-05T10:46:20.456Z,957.48
2018-06-05T10:47:20.398Z,957.44
2018-06-05T10:48:20.345Z,957.51
2018-06-05T10:49:20.292Z,957.48
2018-06-05T10:50:20.239Z,957.44
2018-06-05T10:51:20.185Z,957.47
2018-06-05T10:52:20.133Z,957.45
2018-06-05T10:53:20.079Z,957.43
2018-06-05T10:54:20.024Z,957.42
2018-06-05T10:55:19.971Z,957.44
2018-06-05T10:56:19.919Z,957.45
2018-06-05T10:57:19.865Z,957.42
2018-06-05T10:58:19.811Z,957.47
2018-06-05T10:59:19.759Z,957.43
2018-06-05T11:00:19.799Z,957.40
2018-06-05T11:01:19.650Z,957.41
2018-06-05T11:02:19.596Z,957.43
2018-06-05T11:03:19.540Z,957.47
2018-06-05T11:04:19.487Z,957.45
2018-06-05T11:05:19.431Z,957.47
2018-06-05T11:06:19.410Z,957.47
2018-06-05T11:07:19.326Z,957.45
2018-06-05T11:08:19.274Z,957.40
2018-06-05T11:09:19.217Z,957.44
2018-06-05T11:10:19.161Z,957.42
2018-06-05T11:11:19.108Z,957.41
2018-06-05T11:12:19.051Z,957.42
2018-06-05T11:13:19.001Z,957.39
2018-06-05T11:14:18.944Z,957.36
2018-06-05T11:15:18.890Z,957.36
2018-06-05T11:16:18.835Z,957.34
2018-06-05T11:17:18.779Z,957.33
2018-06-05T11:18:18.749Z,957.32
2018-06-05T11:19:18.673Z,957.34
2018-06-05T11:20:18.617Z,957.34
2018-06-05T11:21:18.563Z,957.32
2018-06-05T11:22:18.509Z,957.30
2018-06-05T11:23:18.453Z,957.24
2018-06-05T11:24:18.397Z,957.27
2018-06-05T11:25:18.343Z,957.29
2018-06-05T11:26:18.290Z,957.25
2018-06-05T11:27:18.234Z,957.23
2018-06-05T11:28:18.311Z,957.25
2018-06-05T11:29:18.134Z,957.28
2018-06-05T11:30:18.070Z,957.29
2018-06-05T11:31:18.016Z,957.24
2018-06-05T11:32:17.960Z,957.26
2018-06-05T11:33:17.904Z,957.28
2018-06-05T11:34:17.851Z,957.20
2018-06-05T11:35:17.797Z,957.25
2018-06-05T11:36:17.742Z,957.20
2018-06-05T11:37:17.687Z,957.27
2018-06-05T11:38:17.634Z,957.26
2018-06-05T11:39:17.577Z,957.20
2018-06-05T11:40:17.523Z,957.20
2018-06-05T11:41:17.468Z,957.19
2018-06-05T11:42:17.413Z,957.15
2018-06-05T11:43:17.359Z,957.14
2018-06-05T11:44:17.305Z,957.11
2018-06-05T11:45:17.251Z,957.14
2018-06-05T11:46:17.194Z,957.07
2018-06-05T11:47:17.139Z,957.05
2018-06-05T11:48:17.087Z,957.05
2018-06-05T11:49:17.046Z,957.04
2018-06-05T11:50:16.982Z,957.06
2018-06-05T11:51:16.923Z,957.03
2018-06-05T11:52:16.868Z,957.06
2018-06-05T11:53:16.812Z,957.04
2018-06-05T11:54:16.807Z,957.09
2018-06-05T11:55:16.704Z,957.07
2018-06-05T11:56:16.652Z,957.06
2018-06-05T11:57:16.594Z,957.04
2018-06-05T11:58:16.541Z,957.05
2018-06-05T11:59:16.487Z,957.04
2018-06-05T12:00:16.431Z,957.07
2018-06-05T12:01:16.379Z,957.01
2018-06-05T12:02:16.324Z,957.11
2018-06-05T12:03:16.268Z,957.06
2018-06-05T12:04:16.216Z,957.04
2018-06-05T12:05:16.159Z,957.04
2018-06-05T12:06:16.104Z,957.04
2018-06-05T12:07:16.052Z,957.02
2018-06-05T12:08:15.997Z,957.03
2018-06-05T12:09:15.941Z,957.01
2018-06-05T12:10:15.889Z,956.99
2018-06-05T12:11:15.833Z,956.94
2018-06-05T12:12:15.778Z,956.89
2018-06-05T12:13:15.723Z,956.86
2018-06-05T12:14:15.665Z,956.88
2018-06-05T12:15:15.614Z,956.82
2018-06-05T12:16:15.559Z,956.90
2018-06-05T12:17:15.504Z,956.91
2018-06-05T12:18:15.448Z,956.90
2018-06-05T12:19:15.396Z,956.88
2018-06-05T12:20:15.341Z,956.88
2018-06-05T12:21:15.286Z,956.81
2018-06-05T12:22:15.233Z,956.83
2018-06-05T12:23:15.186Z,956.81
2018-06-05T12:24:15.123Z,956.77
2018-06-05T12:25:15.068Z,956.73
2018-06-05T12:26:15.016Z,956.72
2018-06-05T12:27:14.960Z,956.64
2018-06-05T12:28:14.907Z,956.67